createdAt,value
2023-02-15T00:02:56.610Z,22.91
2023-02-15T00:03:56.567Z,22.98
2023-02-15T00:04:56.537Z,22.92
2023-02-15T00:05:56.504Z,22.95
2023-02-15T00:06:56.447Z,22.94
2023-02-15T00:07:56.462Z,23.02
2023-02-15T00:08:56.381Z,22.95
2023-02-15T00:09:56.327Z,23.06
2023-02-15T00:10:56.272Z,22.97
2023-02-15T00:11:56.249Z,23.05
2023-02-15T00:12:56.232Z,23.02
2023-02-15T00:13:56.166Z,23.02
2023-02-15T00:14:56.166Z,23.01
2023-02-15T00:15:56.103Z,22.97
2023-02-15T00:16:56.068Z,22.98
2023-02-15T00:17:56.053Z,23.05
2023-02-15T00:18:56.008Z,22.95
2023-02-15T00:19:55.979Z,22.98
2023-02-15T00:20:55.902Z,22.97
2023-02-15T00:21:55.884Z,23.04
2023-02-15T00:22:55.844Z,23.00
2023-02-15T00:23:55.802Z,23.02
2023-02-15T00:24:55.773Z,23.01
2023-02-15T00:25:55.728Z,22.98
2023-02-15T00:26:55.693Z,22.94
2023-02-15T00:27:55.660Z,22.95
2023-02-15T00:28:55.611Z,23.02
2023-02-15T00:29:55.616Z,22.99
2023-02-15T00:30:55.674Z,22.96
2023-02-15T00:31:55.542Z,22.96
2023-02-15T00:32:55.498Z,23.01
2023-02-15T00:33:55.481Z,23.02
2023-02-15T00:34:55.459Z,22.99
2023-02-15T00:35:55.609Z,23.07
2023-02-15T00:36:55.370Z,22.95
2023-02-15T00:37:55.312Z,23.05
2023-02-15T00:38:55.297Z,23.03
2023-02-15T00:39:55.273Z,23.07
2023-02-15T00:40:55.238Z,23.13
2023-02-15T00:41:55.205Z,23.13
2023-02-15T00:42:55.173Z,23.13
2023-02-15T00:43:55.141Z,22.99
2023-02-15T00:44:55.107Z,23.12
2023-02-15T00:45:55.095Z,23.09
2023-02-15T00:46:55.025Z,23.05
2023-02-15T00:47:54.997Z,22.99
2023-02-15T00:48:54.945Z,23.05
2023-02-15T00:49:54.947Z,23.04
2023-02-15T00:50:54.851Z,23.10
2023-02-15T00:51:54.821Z,23.07
2023-02-15T00:52:54.770Z,23.12
2023-02-15T00:53:54.767Z,23.06
2023-02-15T00:54:54.698Z,23.06
2023-02-15T00:55:54.683Z,23.11
2023-02-15T00:56:54.668Z,23.06
2023-02-15T00:57:54.596Z,23.08
2023-02-15T00:58:54.561Z,23.10
2023-02-15T00:59:54.545Z,23.18
2023-02-15T01:00:54.556Z,23.23
2023-02-15T01:01:54.469Z,23.16
2023-02-15T01:02:54.424Z,23.10
2023-02-15T01:03:54.402Z,23.20
2023-02-15T01:04:54.354Z,23.15
2023-02-15T01:05:54.329Z,23.12
2023-02-15T01:06:54.259Z,23.16
2023-02-15T01:07:54.689Z,23.18
2023-02-15T01:08:54.210Z,23.10
2023-02-15T01:09:54.172Z,23.15
2023-02-15T01:10:54.120Z,23.14
2023-02-15T01:11:54.066Z,23.12
2023-02-15T01:12:54.026Z,23.18
2023-02-15T01:13:53.980Z,23.23
2023-02-15T01:14:53.958Z,23.11
2023-02-15T01:15:53.965Z,23.15
2023-02-15T01:16:53.891Z,23.16
2023-02-15T01:17:53.887Z,23.17
2023-02-15T01:18:53.826Z,23.14
2023-02-15T01:19:53.773Z,23.14
2023-02-15T01:20:53.736Z,23.17
2023-02-15T01:21:53.677Z,23.11
2023-02-15T01:22:53.649Z,23.11
2023-02-15T01:23:53.592Z,23.16
2023-02-15T01:24:53.551Z,23.17
2023-02-15T01:25:53.532Z,23.16
2023-02-15T01:26:53.459Z,23.17
2023-02-15T01:27:53.419Z,23.07
2023-02-15T01:28:53.382Z,23.20
2023-02-15T01:29:53.394Z,23.24
2023-02-15T01:30:53.441Z,23.15
2023-02-15T01:31:53.337Z,23.16
2023-02-15T01:32:53.221Z,23.13
2023-02-15T01:33:53.968Z,23.09
2023-02-15T01:34:53.129Z,23.18
2023-02-15T01:35:53.097Z,23.23
2023-02-15T01:36:53.068Z,23.12
2023-02-15T01:37:53.010Z,23.18
2023-02-15T01:38:52.970Z,23.11
2023-02-15T01:39:52.926Z,23.19
2023-02-15T01:40:52.926Z,23.14
2023-02-15T01:41:52.859Z,23.12
2023-02-15T01:42:52.814Z,23.08
2023-02-15T01:43:52.775Z,23.06
2023-02-15T01:44:52.737Z,23.15
2023-02-15T01:45:52.707Z,23.20
2023-02-15T01:46:52.656Z,23.14
2023-02-15T01:47:52.617Z,23.09
2023-02-15T01:48:52.569Z,23.12
2023-02-15T01:49:52.760Z,23.21
2023-02-15T01:50:52.478Z,23.13
2023-02-15T01:51:52.436Z,23.13
2023-02-15T01:52:52.412Z,23.10
2023-02-15T01:54:52.347Z,23.13
2023-02-15T01:55:52.278Z,23.08
2023-02-15T01:56:52.268Z,23.14
2023-02-15T01:57:52.230Z,23.15
2023-02-15T01:58:52.169Z,23.10
2023-02-15T01:59:52.153Z,23.16
2023-02-15T02:00:52.125Z,23.16
2023-02-15T02:01:52.192Z,23.24
2023-02-15T02:02:52.120Z,23.24
2023-02-15T02:03:52.016Z,23.13
2023-02-15T02:04:52.011Z,23.09
2023-02-15T02:05:51.937Z,23.12
2023-02-15T02:06:51.928Z,23.23
2023-02-15T02:07:51.868Z,23.29
2023-02-15T02:08:51.820Z,23.22
2023-02-15T02:09:51.779Z,23.23
2023-02-15T02:10:51.783Z,23.22
2023-02-15T02:11:52.465Z,23.13
2023-02-15T02:12:51.706Z,23.21
2023-02-15T02:13:51.647Z,23.26
2023-02-15T02:14:51.629Z,23.27
2023-02-15T02:15:51.584Z,23.27
2023-02-15T02:16:51.564Z,23.19
2023-02-15T02:17:51.492Z,23.14
2023-02-15T02:18:51.485Z,23.21
2023-02-15T02:19:51.437Z,23.15
2023-02-15T02:20:51.411Z,23.24
2023-02-15T02:21:51.373Z,23.14
2023-02-15T02:22:51.347Z,23.14
2023-02-15T02:23:51.272Z,23.22
2023-02-15T02:24:51.258Z,23.19
2023-02-15T02:25:51.225Z,23.20
2023-02-15T02:26:51.219Z,23.17
2023-02-15T02:27:51.130Z,23.28
2023-02-15T02:28:51.097Z,23.21
2023-02-15T02:29:51.121Z,23.22
2023-02-15T02:33:50.911Z,23.28
2023-02-15T02:34:50.832Z,23.25
2023-02-15T03:04:49.823Z,18.96
2023-02-15T03:05:49.784Z,18.94
2023-02-15T03:06:49.747Z,18.92
2023-02-15T03:07:49.756Z,18.81
2023-02-15T03:08:49.692Z,18.83
2023-02-15T03:09:49.655Z,18.73
2023-02-15T03:10:49.683Z,18.68
2023-02-15T03:11:49.621Z,18.69
2023-02-15T03:12:49.604Z,18.59
2023-02-15T03:13:49.549Z,18.48
2023-02-15T03:14:49.519Z,18.59
2023-02-15T03:15:49.534Z,18.47
2023-02-15T03:16:49.451Z,18.39
2023-02-15T03:17:49.457Z,18.37
2023-02-15T03:18:49.407Z,18.35
2023-02-15T03:19:49.370Z,18.37
2023-02-15T03:20:49.343Z,18.35
2023-02-15T03:21:49.320Z,18.21
2023-02-15T03:22:49.282Z,18.21
2023-02-15T03:23:49.244Z,18.20
2023-02-15T03:24:49.214Z,18.15
2023-02-15T03:25:49.190Z,18.59
2023-02-15T03:26:49.170Z,18.19
2023-02-15T03:27:49.116Z,18.14
2023-02-15T03:28:49.100Z,18.22
2023-02-15T03:29:49.169Z,18.22
2023-02-15T03:30:49.055Z,18.13
2023-02-15T03:31:49.172Z,18.01
2023-02-15T03:32:48.990Z,17.99
2023-02-15T03:33:48.984Z,18.27
2023-02-15T03:34:48.952Z,18.08
2023-02-15T03:35:48.914Z,17.94
2023-02-15T03:36:48.860Z,18.13
2023-02-15T03:37:48.850Z,17.89
2023-02-15T03:38:48.829Z,17.81
2023-02-15T03:39:48.797Z,17.83
2023-02-15T03:40:48.740Z,17.86
2023-02-15T03:41:48.728Z,17.84
2023-02-15T03:42:48.702Z,17.74
2023-02-15T03:43:48.663Z,17.81
2023-02-15T03:44:48.627Z,18.07
2023-02-15T03:45:48.613Z,17.94
2023-02-15T03:46:48.594Z,17.75
2023-02-15T03:47:48.571Z,17.78
2023-02-15T03:48:48.542Z,17.85
2023-02-15T03:49:48.500Z,17.95
2023-02-15T03:50:48.459Z,17.79
2023-02-15T03:51:48.406Z,17.75
2023-02-15T03:52:48.404Z,17.69
2023-02-15T03:53:48.395Z,17.65
2023-02-15T03:54:48.324Z,18.17
2023-02-15T03:55:48.316Z,17.76
2023-02-15T03:56:48.265Z,17.67
2023-02-15T03:57:48.222Z,17.65
2023-02-15T03:58:48.195Z,17.63
2023-02-15T03:59:48.146Z,17.57
2023-02-15T04:00:48.150Z,17.61
2023-02-15T04:01:48.097Z,17.51
2023-02-15T04:02:48.112Z,17.44
2023-02-15T04:03:48.056Z,17.46
2023-02-15T04:04:48.046Z,17.51
2023-02-15T04:05:47.997Z,17.39
2023-02-15T04:06:47.938Z,17.55
2023-02-15T04:07:47.924Z,17.43
2023-02-15T04:08:47.892Z,17.62
2023-02-15T04:09:47.854Z,17.52
2023-02-15T04:10:47.801Z,17.44
2023-02-15T04:11:47.758Z,17.53
2023-02-15T04:12:47.782Z,17.53
2023-02-15T04:13:47.724Z,17.96
2023-02-15T04:14:47.735Z,17.55
2023-02-15T04:15:47.637Z,17.44
2023-02-15T04:16:47.678Z,18.12
2023-02-15T04:17:47.598Z,17.55
2023-02-15T04:18:47.564Z,17.56
2023-02-15T04:19:47.533Z,17.50
2023-02-15T04:20:47.501Z,17.50
2023-02-15T04:21:47.479Z,17.46
2023-02-15T04:22:47.450Z,17.37
2023-02-15T04:23:47.411Z,17.38
2023-02-15T04:24:47.426Z,17.40
2023-02-15T04:25:47.381Z,17.37
2023-02-15T04:26:47.339Z,17.45
2023-02-15T04:27:47.278Z,17.37
2023-02-15T04:28:47.283Z,17.50
2023-02-15T04:29:47.258Z,17.42
2023-02-15T04:30:47.218Z,17.41
2023-02-15T04:31:47.275Z,17.32
2023-02-15T04:32:47.166Z,17.76
2023-02-15T04:33:47.154Z,17.54
2023-02-15T04:34:47.114Z,17.34
2023-02-15T04:35:47.093Z,17.37
2023-02-15T04:36:47.051Z,17.27
2023-02-15T04:37:47.041Z,17.31
2023-02-15T04:38:47.001Z,17.38
2023-02-15T04:39:46.989Z,17.61
2023-02-15T04:40:46.952Z,17.40
2023-02-15T04:41:46.924Z,17.36
2023-02-15T04:42:46.873Z,17.37
2023-02-15T04:43:46.864Z,17.52
2023-02-15T04:44:46.817Z,17.42
2023-02-15T04:45:46.879Z,17.39
2023-02-15T04:46:46.757Z,17.40
2023-02-15T04:47:46.690Z,17.56
2023-02-15T04:48:46.702Z,17.44
2023-02-15T04:49:46.652Z,17.78
2023-02-15T04:50:46.636Z,17.39
2023-02-15T04:51:46.567Z,17.36
2023-02-15T04:52:46.540Z,17.34
2023-02-15T04:53:46.510Z,17.29
2023-02-15T04:54:46.503Z,17.26
2023-02-15T04:55:46.468Z,17.24
2023-02-15T04:56:46.410Z,17.24
2023-02-15T04:57:46.389Z,17.23
2023-02-15T04:58:46.370Z,17.23
2023-02-15T04:59:46.343Z,17.46
2023-02-15T05:00:46.301Z,17.39
2023-02-15T05:01:46.268Z,17.25
2023-02-15T05:02:46.232Z,17.17
2023-02-15T05:03:46.201Z,17.23
2023-02-15T05:04:46.551Z,17.29
2023-02-15T05:05:46.152Z,17.22
2023-02-15T05:06:46.098Z,17.40
2023-02-15T05:07:46.087Z,17.26
2023-02-15T05:08:46.043Z,17.27
2023-02-15T05:09:46.031Z,17.41
2023-02-15T05:10:45.978Z,17.32
2023-02-15T05:11:45.970Z,17.32
2023-02-15T05:12:45.936Z,17.29
2023-02-15T05:13:45.897Z,17.27
2023-02-15T05:14:45.895Z,17.23
2023-02-15T05:15:45.843Z,17.19
2023-02-15T05:16:45.844Z,17.32
2023-02-15T05:17:45.771Z,17.23
2023-02-15T05:18:45.769Z,17.17
2023-02-15T05:19:45.729Z,17.16
2023-02-15T05:20:45.696Z,17.10
2023-02-15T05:21:45.669Z,17.12
2023-02-15T05:22:45.643Z,17.11
2023-02-15T05:23:45.624Z,17.19
2023-02-15T05:24:45.589Z,17.16
2023-02-15T05:25:45.555Z,17.14
2023-02-15T05:26:45.548Z,17.14
2023-02-15T05:27:45.484Z,17.16
2023-02-15T05:28:45.460Z,17.24
2023-02-15T05:29:45.441Z,17.18
2023-02-15T05:30:45.633Z,17.32
2023-02-15T05:31:45.752Z,17.18
2023-02-15T05:32:45.467Z,17.22
2023-02-15T05:33:45.353Z,17.48
2023-02-15T05:34:45.320Z,17.18
2023-02-15T05:35:45.299Z,17.14
2023-02-15T05:36:45.267Z,17.11
2023-02-15T05:37:45.267Z,17.04
2023-02-15T05:38:45.193Z,17.06
2023-02-15T05:39:45.185Z,17.04
2023-02-15T05:40:45.141Z,17.04
2023-02-15T05:41:45.107Z,17.03
2023-02-15T05:42:45.070Z,17.02
2023-02-15T05:43:45.027Z,17.14
2023-02-15T05:44:45.033Z,17.09
2023-02-15T05:45:45.012Z,17.02
2023-02-15T05:46:44.937Z,17.01
2023-02-15T05:47:44.903Z,17.12
2023-02-15T05:48:44.869Z,17.03
2023-02-15T05:49:44.830Z,17.04
2023-02-15T05:50:44.808Z,17.07
2023-02-15T05:51:44.763Z,17.01
2023-02-15T05:52:44.727Z,17.10
2023-02-15T05:53:44.701Z,17.20
2023-02-15T05:54:44.675Z,17.03
2023-02-15T05:55:44.648Z,17.03
2023-02-15T05:56:44.606Z,16.96
2023-02-15T05:57:44.590Z,17.03
2023-02-15T05:58:44.551Z,16.98
2023-02-15T05:59:44.520Z,16.93
2023-02-15T06:00:44.532Z,16.98
2023-02-15T06:01:44.482Z,16.92
2023-02-15T06:02:44.473Z,16.89
2023-02-15T06:03:44.471Z,16.90
2023-02-15T06:04:44.392Z,16.88
2023-02-15T06:05:44.368Z,17.02
2023-02-15T06:06:44.335Z,16.83
2023-02-15T06:07:44.299Z,16.89
2023-02-15T06:08:44.325Z,16.84
2023-02-15T06:09:44.265Z,16.77
2023-02-15T06:10:44.263Z,16.78
2023-02-15T06:11:44.222Z,16.85
2023-02-15T06:12:44.187Z,16.84
2023-02-15T06:13:44.172Z,16.81
2023-02-15T06:14:44.146Z,16.86
2023-02-15T06:15:44.165Z,16.79
2023-02-15T06:16:44.060Z,16.78
2023-02-15T06:17:44.064Z,16.85
2023-02-15T06:18:44.047Z,16.80
2023-02-15T06:19:44.004Z,16.83
2023-02-15T06:20:43.973Z,16.79
2023-02-15T06:21:44.000Z,16.81
2023-02-15T06:22:43.918Z,16.77
2023-02-15T06:23:43.895Z,16.81
2023-02-15T06:24:43.877Z,16.93
2023-02-15T06:25:43.866Z,16.80
2023-02-15T06:26:43.819Z,16.80
2023-02-15T06:27:43.809Z,16.81
2023-02-15T06:28:43.769Z,16.81
2023-02-15T06:29:43.757Z,16.78
2023-02-15T06:30:43.753Z,16.70
2023-02-15T06:31:43.826Z,16.74
2023-02-15T06:32:43.682Z,16.72
2023-02-15T06:33:43.652Z,16.67
2023-02-15T06:34:43.628Z,16.65
2023-02-15T06:35:43.607Z,16.70
2023-02-15T06:36:43.567Z,16.65
2023-02-15T06:37:43.528Z,16.67
2023-02-15T06:38:43.504Z,16.65
2023-02-15T06:39:43.461Z,16.65
2023-02-15T06:40:43.431Z,16.73
2023-02-15T06:41:43.421Z,16.67
2023-02-15T06:42:43.405Z,16.69
2023-02-15T06:43:43.382Z,16.81
2023-02-15T06:44:43.349Z,16.64
2023-02-15T06:45:43.343Z,16.64
2023-02-15T06:46:43.373Z,16.83
2023-02-15T06:47:43.265Z,16.72
2023-02-15T06:48:43.236Z,16.69
2023-02-15T06:49:43.251Z,16.65
2023-02-15T06:50:43.204Z,16.61
2023-02-15T06:51:43.180Z,16.63
2023-02-15T06:52:43.134Z,16.65
2023-02-15T06:53:44.094Z,16.61
2023-02-15T06:54:43.095Z,16.71
2023-02-15T06:55:43.061Z,16.66
2023-02-15T06:56:43.188Z,16.68
2023-02-15T06:57:42.979Z,16.68
2023-02-15T06:58:42.943Z,16.68
2023-02-15T06:59:42.944Z,16.76
2023-02-15T07:00:43.906Z,16.82
2023-02-15T07:01:42.908Z,16.76
2023-02-15T07:02:42.866Z,16.75
2023-02-15T07:03:42.806Z,16.70
2023-02-15T07:04:42.841Z,16.68
2023-02-15T07:05:42.755Z,16.64
2023-02-15T07:06:42.747Z,16.69
2023-02-15T07:07:42.747Z,16.69
2023-02-15T07:08:42.712Z,16.69
2023-02-15T07:09:42.650Z,16.75
2023-02-15T07:10:42.661Z,16.72
2023-02-15T07:11:42.671Z,16.72
2023-02-15T07:12:42.638Z,16.93
2023-02-15T07:13:42.560Z,16.85
2023-02-15T07:14:42.508Z,16.74
2023-02-15T07:15:42.525Z,16.74
2023-02-15T07:16:42.428Z,16.73
2023-02-15T07:17:42.424Z,16.77
2023-02-15T07:18:42.346Z,16.75
2023-02-15T07:19:42.368Z,16.93
2023-02-15T07:20:42.308Z,16.76
2023-02-15T07:21:42.288Z,16.77
2023-02-15T07:22:42.577Z,16.81
2023-02-15T07:23:42.243Z,16.76
2023-02-15T07:24:42.215Z,16.76
2023-02-15T07:25:45.066Z,16.92
2023-02-15T07:26:42.147Z,16.85
2023-02-15T07:27:42.114Z,16.96
2023-02-15T07:28:42.079Z,16.84
2023-02-15T07:29:42.039Z,16.86
2023-02-15T07:30:42.039Z,17.23
2023-02-15T07:31:41.970Z,16.88
2023-02-15T07:32:42.090Z,16.80
2023-02-15T07:33:41.907Z,16.77
2023-02-15T07:34:41.916Z,16.86
2023-02-15T07:35:41.837Z,16.76
2023-02-15T07:36:41.825Z,16.77
2023-02-15T07:37:41.825Z,16.83
2023-02-15T07:38:41.748Z,16.81
2023-02-15T07:39:41.745Z,16.81
2023-02-15T07:40:41.722Z,16.81
2023-02-15T07:41:41.699Z,16.84
2023-02-15T07:42:41.654Z,16.92
2023-02-15T07:43:41.633Z,16.82
2023-02-15T07:44:41.588Z,16.74
2023-02-15T07:45:41.573Z,16.78
2023-02-15T07:46:41.582Z,16.77
2023-02-15T07:47:41.510Z,16.74
2023-02-15T07:48:41.461Z,16.82
2023-02-15T07:49:41.449Z,16.73
2023-02-15T07:50:41.449Z,16.88
2023-02-15T07:51:41.382Z,16.78
2023-02-15T07:52:41.411Z,16.85
2023-02-15T07:53:41.342Z,16.90
2023-02-15T07:54:41.319Z,16.78
2023-02-15T07:55:41.267Z,16.78
2023-02-15T07:56:41.286Z,16.75
2023-02-15T07:57:41.281Z,16.74
2023-02-15T07:58:41.227Z,16.70
2023-02-15T07:59:41.237Z,16.68
2023-02-15T08:00:41.167Z,16.85
2023-02-15T08:01:41.192Z,16.90
2023-02-15T08:02:41.260Z,16.72
2023-02-15T08:03:41.139Z,16.72
2023-02-15T08:04:41.074Z,16.72
2023-02-15T08:05:41.027Z,16.71
2023-02-15T08:06:41.005Z,16.71
2023-02-15T08:07:40.978Z,16.66
2023-02-15T08:08:40.982Z,16.63
2023-02-15T08:09:40.951Z,16.66
2023-02-15T08:10:40.910Z,16.62
2023-02-15T08:11:40.975Z,16.65
2023-02-15T08:12:40.837Z,16.72
2023-02-15T08:13:40.833Z,16.73
2023-02-15T08:14:40.782Z,16.72
2023-02-15T08:15:40.777Z,16.96
2023-02-15T08:16:40.774Z,16.73
2023-02-15T08:17:40.722Z,16.75
2023-02-15T08:18:40.714Z,16.77
2023-02-15T08:19:40.667Z,16.70
2023-02-15T08:20:40.617Z,16.75
2023-02-15T08:21:40.604Z,16.76
2023-02-15T08:22:40.566Z,16.77
2023-02-15T08:23:40.592Z,16.78
2023-02-15T08:24:40.542Z,16.82
2023-02-15T08:25:40.503Z,16.76
2023-02-15T08:26:42.215Z,16.71
2023-02-15T08:27:40.422Z,16.71
2023-02-15T08:28:40.425Z,16.75
2023-02-15T08:29:40.602Z,16.66
2023-02-15T08:30:40.356Z,16.67
2023-02-15T08:31:40.481Z,16.67
2023-02-15T08:32:40.306Z,16.70
2023-02-15T08:33:40.288Z,16.68
2023-02-15T08:34:40.260Z,16.69
2023-02-15T08:35:40.220Z,16.72
2023-02-15T08:36:40.188Z,16.75
2023-02-15T08:37:41.146Z,16.72
2023-02-15T08:38:40.126Z,16.87
2023-02-15T08:39:40.093Z,16.89
2023-02-15T08:40:40.088Z,17.42
2023-02-15T08:41:40.058Z,17.48
2023-02-15T08:42:39.999Z,17.47
2023-02-15T08:44:39.931Z,17.67
2023-02-15T08:45:42.651Z,17.71
2023-02-15T08:46:39.868Z,17.74
2023-02-15T08:47:39.835Z,17.77
2023-02-15T08:48:39.831Z,17.82
2023-02-15T08:49:39.779Z,17.89
2023-02-15T08:50:39.740Z,17.82
2023-02-15T08:51:39.703Z,17.80
2023-02-15T08:52:39.654Z,17.84
2023-02-15T08:53:39.653Z,17.87
2023-02-15T08:54:39.626Z,17.92
2023-02-15T08:55:39.585Z,17.94
2023-02-15T08:56:39.526Z,17.93
2023-02-15T08:57:39.486Z,17.96
2023-02-15T08:58:39.484Z,17.98
2023-02-15T08:59:39.446Z,18.01
2023-02-15T09:00:39.437Z,17.98
2023-02-15T09:01:39.392Z,18.01
2023-02-15T09:02:39.341Z,18.08
2023-02-15T09:03:39.272Z,18.07
2023-02-15T09:04:39.250Z,18.09
2023-02-15T09:05:39.196Z,18.11
2023-02-15T09:06:39.325Z,18.12
2023-02-15T09:07:39.114Z,18.16
2023-02-15T09:08:39.093Z,18.18
2023-02-15T09:09:39.092Z,18.18
2023-02-15T09:10:39.005Z,18.22
2023-02-15T09:11:38.974Z,18.22
2023-02-15T09:12:38.933Z,18.25
2023-02-15T09:13:38.883Z,18.26
2023-02-15T09:14:38.883Z,18.27
2023-02-15T09:15:38.818Z,18.29
2023-02-15T09:16:38.856Z,18.29
2023-02-15T09:17:38.687Z,18.33
2023-02-15T09:18:38.697Z,18.37
2023-02-15T09:19:38.662Z,18.39
2023-02-15T09:20:38.563Z,18.37
2023-02-15T09:21:38.550Z,18.35
2023-02-15T09:22:38.538Z,18.37
2023-02-15T09:23:38.459Z,18.41
2023-02-15T09:24:38.427Z,18.43
2023-02-15T09:25:38.338Z,18.43
2023-02-15T09:26:38.269Z,18.43
2023-02-15T09:27:38.230Z,18.44
2023-02-15T09:28:38.183Z,18.46
2023-02-15T09:29:38.160Z,18.46
2023-02-15T09:30:38.120Z,18.47
2023-02-15T09:31:38.065Z,18.47
2023-02-15T09:32:37.954Z,18.47
2023-02-15T09:33:37.898Z,18.45
2023-02-15T09:34:38.153Z,18.42
2023-02-15T09:35:37.780Z,18.43
2023-02-15T09:36:37.733Z,18.46
2023-02-15T09:37:38.608Z,18.44
2023-02-15T09:38:37.628Z,18.42
2023-02-15T09:39:37.605Z,18.44
2023-02-15T09:40:37.492Z,18.41
2023-02-15T09:41:37.461Z,18.39
2023-02-15T09:42:37.418Z,18.36
2023-02-15T09:43:38.108Z,18.38
2023-02-15T09:44:37.662Z,18.36
2023-02-15T09:45:37.293Z,18.32
2023-02-15T09:46:37.225Z,18.33
2023-02-15T09:47:37.180Z,18.34
2023-02-15T09:48:37.137Z,18.32
2023-02-15T09:49:37.091Z,18.29
2023-02-15T09:50:37.182Z,18.28
2023-02-15T09:51:36.946Z,18.27
2023-02-15T09:52:36.912Z,18.29
2023-02-15T09:53:36.862Z,18.28
2023-02-15T09:54:36.822Z,18.25
2023-02-15T09:55:36.785Z,18.22
2023-02-15T09:56:36.680Z,18.21
2023-02-15T09:57:36.630Z,18.21
2023-02-15T09:58:36.598Z,18.23
2023-02-15T09:59:36.537Z,18.20
2023-02-15T10:00:36.499Z,18.20
2023-02-15T10:01:36.519Z,18.17
2023-02-15T10:02:36.343Z,18.13
2023-02-15T10:03:36.328Z,18.14
2023-02-15T10:04:36.257Z,18.16
2023-02-15T10:05:36.166Z,18.12
2023-02-15T10:06:36.126Z,18.14
2023-02-15T10:07:36.029Z,18.12
2023-02-15T10:08:35.967Z,18.08
2023-02-15T10:09:35.894Z,18.07
2023-02-15T10:10:35.887Z,18.07
2023-02-15T10:11:35.806Z,18.06
2023-02-15T10:12:36.952Z,18.09
2023-02-15T10:13:35.688Z,18.04
2023-02-15T10:14:35.624Z,18.05
2023-02-15T10:15:35.592Z,18.05
2023-02-15T10:16:35.550Z,18.05
2023-02-15T10:17:35.429Z,18.03
2023-02-15T10:18:35.393Z,18.02
2023-02-15T10:19:35.297Z,18.02
2023-02-15T10:20:35.198Z,18.02
2023-02-15T10:21:35.144Z,17.98
2023-02-15T10:22:35.064Z,17.99
2023-02-15T10:23:35.010Z,17.96
2023-02-15T10:24:40.613Z,17.98
2023-02-15T10:25:35.882Z,17.97
2023-02-15T10:26:34.833Z,17.95
2023-02-15T10:27:34.727Z,17.93
2023-02-15T10:28:34.695Z,17.96
2023-02-15T10:29:34.594Z,17.93
2023-02-15T10:30:34.761Z,17.91
2023-02-15T10:31:35.289Z,17.91
2023-02-15T10:32:34.407Z,17.89
2023-02-15T10:33:34.322Z,17.90
2023-02-15T10:34:34.263Z,17.88
2023-02-15T10:35:34.209Z,17.87
2023-02-15T10:36:34.128Z,17.87
2023-02-15T10:37:34.042Z,17.87
2023-02-15T10:38:33.980Z,17.85
2023-02-15T10:39:33.925Z,17.85
2023-02-15T10:40:33.845Z,17.83
2023-02-15T10:41:33.793Z,17.82
2023-02-15T10:42:33.921Z,17.83
2023-02-15T10:43:33.662Z,17.81
2023-02-15T10:44:33.609Z,17.80
2023-02-15T10:45:33.523Z,17.79
2023-02-15T10:46:33.567Z,17.79
2023-02-15T10:47:33.388Z,17.77
2023-02-15T10:48:34.149Z,17.76
2023-02-15T10:49:33.228Z,17.75
2023-02-15T10:50:33.253Z,17.76
2023-02-15T10:51:33.142Z,17.73
2023-02-15T10:52:33.042Z,17.71
2023-02-15T10:53:32.992Z,17.71
2023-02-15T10:54:32.959Z,17.71
2023-02-15T10:55:32.880Z,17.70
2023-02-15T10:56:32.800Z,17.69
2023-02-15T10:57:32.723Z,17.69
2023-02-15T10:58:32.684Z,17.64
2023-02-15T10:59:32.676Z,17.66
2023-02-15T11:00:32.580Z,17.65
2023-02-15T11:01:32.553Z,17.63
2023-02-15T11:02:32.438Z,17.63
2023-02-15T11:05:20.887Z,17.65
2023-02-15T11:06:20.819Z,17.61
2023-02-15T11:07:20.722Z,17.58
2023-02-15T11:08:20.720Z,17.57
2023-02-15T11:09:20.671Z,17.57
2023-02-15T11:10:20.637Z,17.55
2023-02-15T11:11:20.637Z,17.51
2023-02-15T11:12:20.589Z,17.49
2023-02-15T11:13:20.558Z,17.48
2023-02-15T11:14:20.512Z,17.49
2023-02-15T11:15:20.508Z,17.46
2023-02-15T11:16:20.555Z,17.45
2023-02-15T11:17:20.426Z,17.44
2023-02-15T11:18:20.379Z,17.42
2023-02-15T11:19:20.337Z,17.42
2023-02-15T11:20:20.301Z,17.44
2023-02-15T11:21:20.303Z,17.42
2023-02-15T11:22:20.242Z,17.41
2023-02-15T11:23:20.203Z,17.41
2023-02-15T11:24:20.166Z,17.37
2023-02-15T11:25:20.125Z,17.34
2023-02-15T11:26:20.087Z,17.32
2023-02-15T11:27:20.068Z,17.32
2023-02-15T11:28:20.033Z,17.31
2023-02-15T11:29:19.957Z,17.28
2023-02-15T11:30:20.170Z,17.28
2023-02-15T11:31:20.060Z,17.24
2023-02-15T11:32:19.996Z,17.22
2023-02-15T11:33:19.823Z,17.23
2023-02-15T11:34:19.774Z,17.22
2023-02-15T11:35:19.776Z,17.20
2023-02-15T11:36:19.715Z,17.18
2023-02-15T11:37:19.688Z,17.17
2023-02-15T11:38:19.637Z,17.19
2023-02-15T11:39:19.591Z,17.13
2023-02-15T11:40:19.559Z,17.14
2023-02-15T11:41:19.507Z,17.10
2023-02-15T11:42:19.528Z,17.10
2023-02-15T11:43:19.435Z,17.10
2023-02-15T11:44:19.419Z,17.08
2023-02-15T11:45:19.360Z,17.10
2023-02-15T11:46:19.367Z,17.09
2023-02-15T11:47:19.285Z,17.06
2023-02-15T11:48:19.232Z,17.04
2023-02-15T11:49:19.184Z,17.04
2023-02-15T11:50:19.170Z,17.02
2023-02-15T11:51:19.088Z,17.02
2023-02-15T11:52:19.067Z,17.01
2023-02-15T11:53:19.035Z,16.97
2023-02-15T11:54:18.963Z,16.95
2023-02-15T11:55:18.942Z,16.91
2023-02-15T11:56:18.895Z,16.90
2023-02-15T11:57:18.865Z,16.90
2023-02-15T11:58:18.802Z,16.87
2023-02-15T11:59:18.747Z,16.83
2023-02-15T12:00:18.715Z,16.81
2023-02-15T12:01:18.667Z,16.81
2023-02-15T12:02:18.650Z,16.78
2023-02-15T12:03:18.596Z,16.77
2023-02-15T12:04:18.590Z,16.75
2023-02-15T12:05:18.490Z,16.75
2023-02-15T12:06:18.446Z,16.72
2023-02-15T12:07:18.425Z,16.72
2023-02-15T12:08:18.362Z,16.69
2023-02-15T12:09:18.307Z,16.64
2023-02-15T12:10:18.283Z,16.60
2023-02-15T12:11:18.247Z,16.57
2023-02-15T12:12:18.210Z,16.55
2023-02-15T12:13:18.124Z,16.54
2023-02-15T12:14:18.081Z,16.53
2023-02-15T12:15:18.031Z,16.51
2023-02-15T12:16:18.015Z,16.49
2023-02-15T12:17:17.957Z,16.46
2023-02-15T12:18:17.908Z,16.44
2023-02-15T12:19:17.856Z,16.42
2023-02-15T12:20:17.799Z,16.41
2023-02-15T12:21:17.753Z,16.40
2023-02-15T12:22:17.713Z,16.39
2023-02-15T12:23:17.674Z,16.38
2023-02-15T12:24:17.622Z,16.35
2023-02-15T12:25:17.578Z,16.35
2023-02-15T12:26:17.510Z,16.34
2023-02-15T12:27:17.472Z,16.30
2023-02-15T12:28:17.444Z,16.28
2023-02-15T12:29:17.379Z,16.27
2023-02-15T12:30:17.382Z,16.27
2023-02-15T12:31:17.426Z,16.25
2023-02-15T12:32:17.305Z,16.24
2023-02-15T12:33:17.250Z,16.25
2023-02-15T12:34:17.175Z,16.27
2023-02-15T12:35:17.118Z,16.26
2023-02-15T12:36:17.076Z,16.27
2023-02-15T12:37:17.028Z,16.25
2023-02-15T12:38:16.993Z,16.26
2023-02-15T12:39:16.950Z,16.25
2023-02-15T12:40:16.884Z,16.25
2023-02-15T12:41:16.855Z,16.24
2023-02-15T12:42:16.781Z,16.22
2023-02-15T12:43:16.770Z,16.20
2023-02-15T12:44:16.717Z,16.20
2023-02-15T12:45:19.348Z,16.17
2023-02-15T12:46:16.687Z,16.15
2023-02-15T12:47:16.579Z,16.14
2023-02-15T12:48:16.546Z,16.15
2023-02-15T12:49:20.470Z,16.16
2023-02-15T12:50:16.421Z,16.15
2023-02-15T12:51:16.378Z,16.16
2023-02-15T12:52:16.314Z,16.16
2023-02-15T12:53:16.295Z,16.18
2023-02-15T12:54:16.399Z,16.17
2023-02-15T12:55:16.175Z,16.19
2023-02-15T12:56:16.107Z,16.18
2023-02-15T12:57:16.068Z,16.21
2023-02-15T12:58:16.047Z,16.22
2023-02-15T12:59:16.001Z,16.21
2023-02-15T13:00:15.906Z,16.21
2023-02-15T13:01:15.924Z,16.23
2023-02-15T13:02:15.887Z,16.25
2023-02-15T13:03:15.791Z,16.26
2023-02-15T13:04:15.722Z,16.27
2023-02-15T13:05:15.660Z,16.26
2023-02-15T13:06:15.630Z,16.27
2023-02-15T13:07:15.575Z,16.26
2023-02-15T13:08:15.553Z,16.24
2023-02-15T13:09:15.478Z,16.24
2023-02-15T13:10:15.442Z,16.22
2023-02-15T13:11:15.399Z,16.24
2023-02-15T13:12:15.363Z,16.22
2023-02-15T13:13:15.329Z,16.22
2023-02-15T13:14:15.285Z,16.22
2023-02-15T13:15:15.196Z,16.21
2023-02-15T13:16:15.168Z,16.18
2023-02-15T13:17:15.096Z,16.18
2023-02-15T13:18:15.050Z,16.19
2023-02-15T13:19:15.030Z,16.17
2023-02-15T13:20:14.978Z,16.19
2023-02-15T13:21:14.919Z,16.19
2023-02-15T13:22:14.865Z,16.19
2023-02-15T13:23:14.831Z,16.20
2023-02-15T13:24:14.845Z,16.22
2023-02-15T13:25:14.739Z,16.21
2023-02-15T13:26:14.693Z,16.22
2023-02-15T13:27:16.161Z,16.25
2023-02-15T13:28:14.581Z,16.24
2023-02-15T13:29:14.576Z,16.24
2023-02-15T13:30:14.557Z,16.27